createdAt,value
2022-10-15T00:02:23.081Z,111.05
2022-10-15T00:05:08.563Z,97.93
2022-10-15T00:07:54.573Z,77.60
2022-10-15T00:10:40.050Z,59.50
2022-10-15T00:13:25.361Z,54.65
2022-10-15T00:16:20.691Z,46.30
2022-10-15T00:19:06.338Z,41.03
2022-10-15T00:21:51.509Z,34.75
2022-10-15T00:24:37.285Z,33.65
2022-10-15T00:27:22.599Z,31.25
2022-10-15T00:30:08.945Z,31.33
2022-10-15T00:32:54.350Z,29.20
2022-10-15T00:35:39.570Z,30.30
2022-10-15T00:38:25.026Z,29.20
2022-10-15T00:41:20.747Z,30.27
2022-10-15T00:44:21.455Z,28.65
2022-10-15T00:47:17.982Z,28.63
2022-10-15T00:50:12.617Z,28.75
2022-10-15T00:53:07.999Z,30.45
2022-10-15T00:55:54.307Z,30.08
2022-10-15T00:58:40.496Z,29.25
2022-10-15T01:01:26.678Z,28.75
2022-10-15T01:04:12.880Z,31.90
2022-10-15T01:06:58.544Z,32.95
2022-10-15T01:09:43.907Z,41.45
2022-10-15T01:12:54.316Z,34.75
2022-10-15T01:16:08.106Z,32.38
2022-10-15T01:19:00.369Z,37.28
2022-10-15T01:21:57.072Z,34.78
2022-10-15T01:25:04.209Z,36.47
2022-10-15T01:27:56.619Z,35.40
2022-10-15T01:33:45.325Z,37.05
2022-10-15T01:36:39.477Z,34.58
2022-10-15T01:39:34.521Z,35.88
2022-10-15T01:42:30.108Z,35.65
2022-10-15T01:45:31.847Z,35.28
2022-10-15T01:48:47.213Z,33.13
2022-10-15T01:51:35.251Z,32.83
2022-10-15T01:54:23.767Z,34.42
2022-10-15T01:57:12.192Z,35.15
2022-10-15T01:59:58.917Z,33.28
2022-10-15T02:02:44.233Z,33.78
2022-10-15T02:05:40.189Z,33.75
2022-10-15T02:08:31.231Z,35.38
2022-10-15T02:11:17.923Z,32.67
2022-10-15T02:14:11.532Z,33.05
2022-10-15T02:17:06.679Z,33.08
2022-10-15T02:23:04.471Z,32.30
2022-10-15T02:25:52.525Z,38.08
2022-10-15T02:28:42.211Z,32.65
2022-10-15T02:31:31.501Z,34.25
2022-10-15T02:34:22.554Z,33.95
2022-10-15T02:37:09.146Z,33.63
2022-10-15T02:39:54.897Z,34.05
2022-10-15T02:42:40.411Z,34.92
2022-10-15T02:45:26.771Z,35.58
2022-10-15T02:48:12.244Z,39.92
2022-10-15T02:50:57.829Z,38.60
2022-10-15T02:53:43.277Z,35.90
2022-10-15T02:59:19.736Z,36.83
2022-10-15T03:02:05.242Z,34.92
2022-10-15T03:04:51.040Z,32.20
2022-10-15T03:07:37.433Z,33.13
2022-10-15T03:10:23.254Z,34.17
2022-10-15T03:13:09.060Z,32.58
2022-10-15T03:16:07.422Z,34.80
2022-10-15T03:18:54.375Z,34.85
2022-10-15T03:21:39.903Z,33.00
2022-10-15T03:24:30.546Z,35.03
2022-10-15T03:27:16.422Z,36.13
2022-10-15T03:30:01.888Z,35.30
2022-10-15T03:32:50.958Z,38.17
2022-10-15T03:35:37.351Z,35.97
2022-10-15T03:38:23.460Z,33.58
2022-10-15T03:41:10.946Z,33.70
2022-10-15T03:44:04.363Z,36.72
2022-10-15T03:46:50.380Z,37.42
2022-10-15T03:49:40.496Z,35.83
2022-10-15T03:52:25.970Z,35.58
2022-10-15T03:55:13.342Z,35.90
2022-10-15T03:58:01.381Z,35.35
2022-10-15T04:00:47.068Z,37.78
2022-10-15T04:03:32.980Z,36.00
2022-10-15T04:06:18.335Z,37.75
2022-10-15T04:09:04.853Z,38.67
2022-10-15T04:11:50.363Z,36.72
2022-10-15T04:14:36.972Z,35.58
2022-10-15T04:17:22.756Z,36.35
2022-10-15T04:20:09.971Z,35.75
2022-10-15T04:22:56.767Z,35.63
2022-10-15T04:25:43.432Z,39.03
2022-10-15T04:28:30.023Z,35.10
2022-10-15T04:31:15.929Z,38.85
2022-10-15T04:34:01.493Z,37.05
2022-10-15T04:36:47.423Z,37.22
2022-10-15T04:39:37.192Z,38.10
2022-10-15T04:42:22.606Z,37.83
2022-10-15T04:45:08.376Z,37.67
2022-10-15T04:47:54.056Z,40.28
2022-10-15T04:50:39.995Z,35.70
2022-10-15T04:53:37.833Z,35.30
2022-10-15T04:56:23.321Z,33.25
2022-10-15T04:59:08.709Z,36.90
2022-10-15T05:02:11.687Z,35.97
2022-10-15T05:04:57.380Z,33.17
2022-10-15T05:07:42.967Z,33.33
2022-10-15T05:10:29.357Z,34.03
2022-10-15T05:13:16.466Z,36.47
2022-10-15T05:16:14.891Z,34.00
2022-10-15T05:19:06.680Z,33.65
2022-10-15T05:21:54.417Z,32.10
2022-10-15T05:24:43.311Z,34.03
2022-10-15T05:27:33.448Z,33.42
2022-10-15T05:30:19.868Z,33.70
2022-10-15T05:33:10.000Z,35.90
2022-10-15T05:35:56.589Z,37.08
2022-10-15T05:38:43.026Z,36.28
2022-10-15T05:41:29.941Z,36.75
2022-10-15T05:44:15.575Z,36.90
2022-10-15T05:47:00.900Z,36.85
2022-10-15T05:49:46.499Z,39.35
2022-10-15T05:52:36.819Z,39.50
2022-10-15T05:55:31.907Z,40.55
2022-10-15T05:58:17.174Z,38.45
2022-10-15T06:01:04.973Z,40.33
2022-10-15T06:03:51.765Z,38.40
2022-10-15T06:06:37.193Z,42.90
2022-10-15T06:09:22.763Z,49.08
2022-10-15T06:12:08.246Z,44.83
2022-10-15T06:14:53.656Z,42.67
2022-10-15T06:17:39.056Z,43.50
2022-10-15T06:20:24.302Z,46.00
2022-10-15T06:23:10.972Z,46.15
2022-10-15T06:25:56.586Z,45.63
2022-10-15T06:28:42.277Z,46.40
2022-10-15T06:31:27.553Z,47.83
2022-10-15T06:34:13.068Z,45.85
2022-10-15T06:36:58.517Z,46.88
2022-10-15T06:39:44.184Z,46.60
2022-10-15T06:42:29.415Z,48.45
2022-10-15T06:45:18.117Z,52.92
2022-10-15T06:48:07.578Z,48.63
2022-10-15T06:50:52.774Z,49.40
2022-10-15T06:53:41.079Z,49.50
2022-10-15T06:56:26.492Z,48.75
2022-10-15T06:59:11.900Z,47.30
2022-10-15T07:01:57.445Z,44.33
2022-10-15T07:04:42.793Z,44.67
2022-10-15T07:07:34.206Z,48.22
2022-10-15T07:13:05.974Z,43.92
2022-10-15T07:15:53.915Z,39.95
2022-10-15T07:18:39.984Z,36.50
2022-10-15T07:21:25.361Z,36.20
2022-10-15T07:24:10.682Z,32.20
2022-10-15T07:26:56.155Z,35.58
2022-10-15T07:29:41.795Z,34.92
2022-10-15T07:32:27.503Z,30.70
2022-10-15T07:35:13.367Z,32.70
2022-10-15T07:38:01.669Z,33.88
2022-10-15T07:40:47.231Z,37.13
2022-10-15T07:43:34.121Z,34.95
2022-10-15T07:46:19.734Z,35.47
2022-10-15T07:49:05.473Z,34.58
2022-10-15T07:51:51.189Z,35.17
2022-10-15T07:54:36.736Z,34.40
2022-10-15T07:57:22.372Z,34.28
2022-10-15T08:00:09.196Z,36.15
2022-10-15T08:02:57.913Z,35.67
2022-10-15T08:05:43.350Z,43.67
2022-10-15T08:08:29.552Z,41.13
2022-10-15T08:11:16.517Z,38.22
2022-10-15T08:14:03.689Z,38.58
2022-10-15T08:16:48.863Z,38.55
2022-10-15T08:19:34.659Z,37.58
2022-10-15T08:22:19.720Z,39.72
2022-10-15T08:25:05.342Z,43.38
2022-10-15T08:27:52.694Z,40.88
2022-10-15T08:30:38.280Z,41.10
2022-10-15T08:33:29.386Z,44.63
2022-10-15T08:36:14.955Z,41.85
2022-10-15T08:39:03.505Z,45.00
2022-10-15T08:41:54.878Z,41.28
2022-10-15T08:45:04.109Z,39.22
2022-10-15T08:48:03.908Z,39.08
2022-10-15T08:50:58.311Z,37.45
2022-10-15T08:53:49.667Z,35.92
2022-10-15T08:56:43.520Z,36.15
2022-10-15T08:59:46.775Z,31.70
2022-10-15T09:02:53.000Z,29.52
2022-10-15T09:06:02.740Z,27.75
2022-10-15T09:08:51.017Z,27.92
2022-10-15T09:11:50.308Z,27.38
2022-10-15T09:14:41.208Z,25.13
2022-10-15T09:17:31.364Z,21.70
2022-10-15T09:20:33.514Z,22.42
2022-10-15T09:23:22.429Z,19.92
2022-10-15T09:26:32.936Z,19.73
2022-10-15T09:29:24.973Z,17.67
2022-10-15T09:32:31.462Z,18.17
2022-10-15T09:35:30.158Z,16.42
2022-10-15T09:38:25.650Z,16.17
2022-10-15T09:41:41.676Z,16.38
2022-10-15T09:44:39.697Z,15.68
2022-10-15T09:47:29.818Z,16.90
2022-10-15T09:50:21.280Z,14.98
2022-10-15T09:53:45.519Z,17.60
2022-10-15T09:56:42.315Z,14.27
2022-10-15T09:59:28.188Z,13.63
2022-10-15T10:02:19.686Z,14.23
2022-10-15T10:05:28.464Z,12.98
2022-10-15T10:08:21.721Z,12.30
2022-10-15T10:11:10.519Z,13.00
2022-10-15T10:13:58.797Z,15.55
2022-10-15T10:17:06.023Z,15.20
2022-10-15T10:20:09.675Z,13.90
2022-10-15T10:23:00.664Z,15.35
2022-10-15T10:25:45.829Z,14.48
2022-10-15T10:28:44.120Z,13.13
2022-10-15T10:31:42.422Z,12.90
2022-10-15T10:34:32.838Z,12.65
2022-10-15T10:37:18.458Z,12.52
2022-10-15T10:40:04.761Z,11.80
2022-10-15T10:43:19.392Z,12.27
2022-10-15T10:46:19.213Z,13.05
2022-10-15T10:49:05.275Z,12.75
2022-10-15T10:51:50.744Z,13.63
2022-10-15T10:54:36.690Z,12.75
2022-10-15T10:57:34.809Z,9.93
2022-10-15T11:00:43.363Z,10.88
2022-10-15T11:03:35.850Z,10.63
2022-10-15T11:06:29.897Z,8.45
2022-10-15T11:09:24.202Z,8.70
2022-10-15T11:12:21.872Z,8.20
2022-10-15T11:15:25.104Z,8.73
2022-10-15T11:18:28.698Z,8.95
2022-10-15T11:21:24.725Z,7.55
2022-10-15T11:24:13.293Z,7.55
2022-10-15T11:27:15.588Z,6.55
2022-10-15T11:30:10.444Z,6.72
2022-10-15T11:33:19.179Z,6.43
2022-10-15T11:36:35.255Z,5.68
2022-10-15T11:39:45.693Z,5.00
2022-10-15T11:42:56.692Z,4.43
2022-10-15T11:46:12.633Z,4.72
2022-10-15T11:49:13.360Z,3.88
2022-10-15T11:52:31.602Z,3.83
2022-10-15T11:55:25.125Z,4.82
2022-10-15T11:58:39.821Z,3.70
2022-10-15T12:01:38.635Z,3.38
2022-10-15T12:04:49.622Z,4.15
2022-10-15T12:07:41.109Z,3.80
2022-10-15T12:10:55.246Z,2.95
2022-10-15T12:13:48.892Z,2.92
2022-10-15T12:16:56.196Z,3.40
2022-10-15T12:20:19.265Z,3.28
2022-10-15T12:23:04.846Z,3.10
2022-10-15T12:25:50.352Z,3.30
2022-10-15T12:28:36.412Z,3.00
2022-10-15T12:31:22.051Z,3.22
2022-10-15T12:34:41.144Z,3.45
2022-10-15T12:37:29.115Z,3.70
2022-10-15T12:40:23.493Z,3.40
2022-10-15T12:43:21.290Z,3.30
2022-10-15T12:46:09.441Z,4.15
2022-10-15T12:48:58.039Z,4.28
2022-10-15T12:51:43.236Z,4.25
2022-10-15T12:54:40.141Z,3.80
2022-10-15T12:57:31.778Z,4.10
2022-10-15T13:00:26.272Z,5.00
2022-10-15T13:03:25.376Z,4.15
2022-10-15T13:06:23.641Z,4.85
2022-10-15T13:09:11.752Z,3.55
2022-10-15T13:11:59.552Z,3.90
2022-10-15T13:14:53.018Z,3.78
2022-10-15T13:17:39.656Z,3.20
2022-10-15T13:20:37.808Z,3.22
2022-10-15T13:23:31.653Z,3.47
2022-10-15T13:26:25.754Z,3.50
2022-10-15T13:29:37.625Z,3.70
2022-10-15T13:32:23.909Z,3.90
2022-10-15T13:35:17.222Z,3.83
2022-10-15T13:38:04.673Z,3.40
2022-10-15T13:40:52.801Z,3.65
2022-10-15T13:43:38.016Z,2.88
2022-10-15T13:46:24.947Z,2.50
2022-10-15T13:49:13.142Z,3.13
2022-10-15T13:51:58.572Z,3.40
2022-10-15T13:54:47.161Z,2.65
2022-10-15T13:57:32.397Z,3.00
2022-10-15T14:00:37.336Z,3.00
2022-10-15T14:03:25.612Z,3.00
2022-10-15T14:06:29.240Z,2.45
2022-10-15T14:09:22.826Z,3.47
2022-10-15T14:12:08.655Z,1.90
2022-10-15T14:14:54.879Z,2.03
2022-10-15T14:17:40.452Z,2.95
2022-10-15T14:20:27.637Z,3.75
2022-10-15T14:23:21.998Z,4.60
2022-10-15T14:26:08.471Z,3.35
2022-10-15T14:28:55.994Z,3.63
2022-10-15T14:31:46.892Z,3.65
2022-10-15T14:34:39.891Z,2.90
2022-10-15T14:37:41.403Z,2.00
2022-10-15T14:40:27.131Z,3.43
2022-10-15T14:43:17.183Z,3.45
2022-10-15T14:46:11.708Z,4.78
2022-10-15T14:48:57.137Z,3.95
2022-10-15T14:51:42.945Z,3.38
2022-10-15T14:54:34.805Z,3.20
2022-10-15T14:57:23.826Z,2.88
2022-10-15T15:00:21.441Z,5.15
2022-10-15T15:03:07.449Z,4.32
2022-10-15T15:05:55.601Z,4.10
2022-10-15T15:08:41.793Z,4.47
2022-10-15T15:11:26.903Z,4.45
2022-10-15T15:14:32.875Z,4.43
2022-10-15T15:17:21.236Z,3.47
2022-10-15T15:20:07.158Z,5.43
2022-10-15T15:22:54.552Z,3.60
2022-10-15T15:25:40.083Z,2.45
2022-10-15T15:28:27.272Z,5.22
2022-10-15T15:31:16.285Z,4.60
2022-10-15T15:34:01.338Z,3.85
2022-10-15T15:36:46.867Z,3.45
2022-10-15T15:39:32.442Z,3.25
2022-10-15T15:42:20.432Z,3.65
2022-10-15T15:45:06.271Z,5.15
2022-10-15T15:47:52.375Z,5.22
2022-10-15T15:50:38.010Z,4.82
2022-10-15T15:53:23.080Z,4.72
2022-10-15T15:56:08.396Z,4.28
2022-10-15T15:58:54.024Z,4.70
2022-10-15T16:01:39.554Z,3.22
2022-10-15T16:04:24.922Z,3.13
2022-10-15T16:07:13.304Z,2.40
2022-10-15T16:09:59.897Z,3.00
2022-10-15T16:12:45.233Z,2.42
2022-10-15T16:15:30.791Z,3.20
2022-10-15T16:18:16.204Z,2.03
2022-10-15T16:21:01.741Z,2.85
2022-10-15T16:23:47.242Z,2.35
2022-10-15T16:26:33.057Z,5.07
2022-10-15T16:29:18.456Z,2.33
2022-10-15T16:32:04.508Z,2.33
2022-10-15T16:34:51.123Z,2.40
2022-10-15T16:37:36.641Z,3.15
2022-10-15T16:40:22.383Z,2.60
2022-10-15T16:43:08.095Z,2.28
2022-10-15T16:45:58.208Z,2.35
2022-10-15T16:48:43.864Z,2.30
2022-10-15T16:54:16.597Z,2.72
2022-10-15T16:57:01.997Z,2.33
2022-10-15T16:59:47.402Z,2.00
2022-10-15T17:02:32.835Z,2.47
2022-10-15T17:05:18.586Z,2.30
2022-10-15T17:08:03.791Z,2.00
2022-10-15T17:10:49.272Z,2.05
2022-10-15T17:13:34.778Z,2.92
2022-10-15T17:16:29.170Z,2.40
2022-10-15T17:19:21.447Z,3.05
2022-10-15T17:22:06.613Z,2.35
2022-10-15T17:24:51.975Z,2.85
2022-10-15T17:27:37.500Z,2.15
2022-10-15T17:30:22.835Z,3.45
2022-10-15T17:33:08.325Z,2.15
2022-10-15T17:35:53.498Z,2.15
2022-10-15T17:38:39.137Z,2.25
2022-10-15T17:41:26.564Z,3.10
2022-10-15T17:44:12.473Z,2.53
2022-10-15T17:46:57.907Z,4.20
2022-10-15T17:49:46.555Z,2.70
2022-10-15T17:52:33.690Z,3.40
2022-10-15T17:55:19.286Z,4.68
2022-10-15T17:58:04.988Z,3.70
2022-10-15T18:00:55.341Z,1.92
2022-10-15T18:03:42.105Z,3.15
2022-10-15T18:06:28.191Z,5.35
2022-10-15T18:09:13.227Z,3.55
2022-10-15T18:12:00.527Z,4.15
2022-10-15T18:14:46.014Z,4.57
2022-10-15T18:17:37.107Z,4.72
2022-10-15T18:20:24.095Z,3.22
2022-10-15T18:23:09.540Z,5.60
2022-10-15T18:26:06.521Z,6.20
2022-10-15T18:28:53.890Z,7.65
2022-10-15T18:31:39.373Z,5.22
2022-10-15T18:34:24.961Z,4.53
2022-10-15T18:37:10.236Z,5.50
2022-10-15T18:39:55.841Z,4.53
2022-10-15T18:42:42.165Z,4.03
2022-10-15T18:45:36.819Z,4.13
2022-10-15T18:48:22.357Z,3.30
2022-10-15T18:51:10.919Z,3.42
2022-10-15T18:53:56.623Z,4.90
2022-10-15T18:56:42.250Z,4.38
2022-10-15T18:59:27.766Z,4.18
2022-10-15T19:02:13.383Z,5.35
2022-10-15T19:04:58.848Z,3.85
2022-10-15T19:07:45.246Z,4.07
2022-10-15T19:10:31.096Z,3.03
2022-10-15T19:13:16.262Z,2.83
2022-10-15T19:16:03.363Z,2.78
2022-10-15T19:18:48.676Z,4.00
2022-10-15T19:21:37.370Z,3.78
2022-10-15T19:24:23.541Z,4.93
2022-10-15T19:29:55.309Z,4.72
2022-10-15T19:32:40.899Z,3.53
2022-10-15T19:35:26.481Z,3.05
2022-10-15T19:38:12.925Z,3.38
2022-10-15T19:41:03.092Z,4.15
2022-10-15T19:43:48.361Z,3.40
2022-10-15T19:46:37.922Z,3.15
2022-10-15T19:49:23.536Z,7.07
2022-10-15T19:52:09.078Z,2.75
2022-10-15T19:54:55.388Z,5.30
2022-10-15T19:57:40.925Z,5.65
2022-10-15T20:00:26.333Z,4.18
2022-10-15T20:03:11.679Z,3.80
2022-10-15T20:05:57.481Z,3.45
2022-10-15T20:08:42.880Z,3.70
2022-10-15T20:11:28.109Z,6.20
2022-10-15T20:14:13.715Z,3.72
2022-10-15T20:16:58.977Z,3.38
2022-10-15T20:19:44.972Z,3.22
2022-10-15T20:22:30.542Z,3.78
2022-10-15T20:25:16.921Z,4.03
2022-10-15T20:28:02.133Z,3.97
2022-10-15T20:30:49.627Z,4.80
2022-10-15T20:33:35.357Z,3.30
2022-10-15T20:36:23.829Z,3.60
2022-10-15T20:39:09.292Z,2.60
2022-10-15T20:41:54.775Z,4.07
2022-10-15T20:44:40.181Z,6.07
2022-10-15T20:47:25.921Z,2.97
2022-10-15T20:50:16.116Z,3.35
2022-10-15T20:53:02.864Z,3.83
2022-10-15T20:55:48.357Z,4.43
2022-10-15T20:58:33.723Z,4.05
2022-10-15T21:01:19.712Z,5.22
2022-10-15T21:04:06.076Z,5.82
2022-10-15T21:06:51.451Z,2.15
2022-10-15T21:09:36.777Z,3.72
2022-10-15T21:12:22.155Z,1.92
2022-10-15T21:15:08.047Z,3.08
2022-10-15T21:17:53.489Z,2.25
2022-10-15T21:20:38.998Z,2.75
2022-10-15T21:23:24.439Z,3.63
2022-10-15T21:26:15.666Z,4.97
2022-10-15T21:29:00.885Z,2.80
2022-10-15T21:31:47.693Z,3.75
2022-10-15T21:34:32.861Z,2.72
2022-10-15T21:37:18.290Z,3.80
2022-10-15T21:40:04.233Z,4.68
2022-10-15T21:42:49.610Z,4.57
2022-10-15T21:45:34.873Z,2.63
2022-10-15T21:48:20.642Z,4.13
2022-10-15T21:51:10.413Z,4.68
2022-10-15T21:53:57.781Z,3.15
2022-10-15T21:56:42.967Z,4.10
2022-10-15T21:59:28.622Z,2.58
2022-10-15T22:02:14.087Z,2.80
2022-10-15T22:04:59.492Z,2.35
2022-10-15T22:07:44.721Z,2.40
2022-10-15T22:10:31.095Z,3.80
2022-10-15T22:13:16.302Z,2.85
2022-10-15T22:16:01.835Z,3.08
2022-10-15T22:18:47.460Z,2.58
2022-10-15T22:21:36.423Z,4.25
2022-10-15T22:24:21.916Z,2.92
2022-10-15T22:27:08.519Z,2.88
2022-10-15T22:29:53.913Z,3.13
2022-10-15T22:32:39.390Z,2.42
2022-10-15T22:35:24.781Z,2.40
2022-10-15T22:38:10.402Z,4.05
2022-10-15T22:40:56.018Z,4.13
2022-10-15T22:43:42.649Z,2.78
2022-10-15T22:46:28.565Z,2.40
2022-10-15T22:49:14.292Z,3.08
2022-10-15T22:51:59.618Z,3.90
2022-10-15T22:54:45.140Z,3.20
2022-10-15T22:57:30.428Z,3.05
2022-10-15T23:00:16.213Z,3.22
2022-10-15T23:03:01.421Z,3.40
2022-10-15T23:05:53.995Z,1.50
2022-10-15T23:11:34.409Z,2.90
2022-10-15T23:14:19.662Z,2.10
2022-10-15T23:17:05.299Z,3.03
2022-10-15T23:19:50.665Z,3.60
2022-10-15T23:22:36.241Z,4.28
2022-10-15T23:25:21.520Z,2.58
2022-10-15T23:28:07.013Z,2.58
2022-10-15T23:30:52.801Z,3.03
2022-10-15T23:33:38.114Z,2.33
2022-10-15T23:36:25.205Z,2.55
2022-10-15T23:39:19.594Z,2.58
2022-10-15T23:42:05.061Z,3.80
2022-10-15T23:44:50.501Z,3.60
2022-10-15T23:47:35.665Z,2.95
2022-10-15T23:50:21.087Z,2.53
2022-10-15T23:53:06.182Z,1.85
2022-10-15T23:55:51.729Z,3.15
2022-10-15T23:58:37.759Z,3.00
